Time;durP1;ratioP1;P1;durP2;ratioP2;P2;SDS_P1;SDS_P2;PMS_P1;PMS_P2;Temp;Humidity;BMP_temperature;BMP_pressure;BME280_temperature;BME280_humidity;BME280_pressure;Samples;Min_cycle;Max_cycle;Signal;HPM_P1;HPM_P2
2023/07/22 00:01:39;;;;;;;5.40;2.40;;;11.30;60.50;;;;;;5059513;28;20033;-67
2023/07/22 00:04:06;;;;;;;2.88;1.27;;;11.40;60.60;;;;;;5049753;28;20364;-66
2023/07/22 00:06:34;;;;;;;4.70;1.50;;;11.40;60.60;;;;;;5049210;28;20399;-67
2023/07/22 00:09:02;;;;;;;2.13;1.23;;;11.50;60.40;;;;;;5049728;28;20091;-67
2023/07/22 00:11:29;;;;;;;3.15;1.20;;;11.50;60.50;;;;;;5058322;28;20072;-66
2023/07/22 00:13:56;;;;;;;6.93;1.50;;;11.60;60.20;;;;;;5054997;28;20123;-66
2023/07/22 00:16:24;;;;;;;4.20;1.40;;;11.70;60.10;;;;;;5069614;28;20110;-66
2023/07/22 00:18:51;;;;;;;5.13;1.27;;;11.70;60.00;;;;;;5069316;28;20380;-67
2023/07/22 00:21:18;;;;;;;3.75;1.40;;;11.70;60.20;;;;;;5078160;28;20036;-67
2023/07/22 00:23:46;;;;;;;3.75;1.25;;;11.70;60.10;;;;;;5090185;28;20114;-67
2023/07/22 05:57:30;;;;;;;5.65;1.30;;;14.40;63.40;;;;;;5099904;27;20140;-70
2023/07/22 05:59:57;;;;;;;3.58;1.60;;;14.50;63.60;;;;;;5092561;28;20047;-70
2023/07/22 06:02:24;;;;;;;3.20;1.30;;;14.40;63.80;;;;;;5090803;28;20024;-70
2023/07/22 06:04:52;;;;;;;3.17;1.30;;;14.40;63.80;;;;;;5092351;28;20557;-69
2023/07/22 06:07:19;;;;;;;3.80;1.67;;;14.40;64.20;;;;;;5100710;28;20040;-69
2023/07/22 06:09:46;;;;;;;5.93;1.90;;;14.40;63.80;;;;;;5113092;28;20088;-70
2023/07/22 06:12:13;;;;;;;2.67;1.45;;;14.40;64.20;;;;;;5112836;28;20097;-69
2023/07/22 06:14:40;;;;;;;3.78;1.50;;;14.30;64.00;;;;;;5113067;28;20561;-69
2023/07/22 06:17:08;;;;;;;4.47;1.33;;;14.40;64.20;;;;;;5112783;28;20043;-68
2023/07/22 06:19:35;;;;;;;2.47;1.40;;;14.40;64.60;;;;;;5112617;28;20094;-70
2023/07/22 06:22:02;;;;;;;3.63;1.50;;;14.40;64.80;;;;;;5112513;28;20039;-70
2023/07/22 06:24:30;;;;;;;3.20;1.38;;;14.40;64.90;;;;;;5112716;28;20102;-70
2023/07/22 06:26:57;;;;;;;3.10;1.35;;;14.30;65.20;;;;;;5112770;28;20145;-70
2023/07/22 06:29:24;;;;;;;3.88;1.40;;;14.30;65.40;;;;;;5112726;28;20611;-70
2023/07/22 06:31:51;;;;;;;2.92;1.50;;;14.30;65.70;;;;;;5112470;28;20034;-69
2023/07/22 06:34:19;;;;;;;4.32;1.55;;;14.30;66.30;;;;;;5110634;28;20019;-68
2023/07/22 06:36:46;;;;;;;4.25;1.70;;;14.20;66.40;;;;;;5098411;28;20040;-68
2023/07/22 06:39:13;;;;;;;4.03;1.50;;;14.30;65.90;;;;;;5091337;28;20127;-68
2023/07/22 06:41:40;;;;;;;7.45;1.83;;;14.20;66.40;;;;;;5091367;28;20136;-68
2023/07/22 06:44:08;;;;;;;3.50;1.75;;;14.20;66.90;;;;;;5092007;28;20055;-68
2023/07/22 06:46:35;;;;;;;6.57;1.83;;;14.20;66.40;;;;;;5090616;28;20032;-68
2023/07/22 06:49:02;;;;;;;6.63;1.95;;;14.20;66.30;;;;;;5090711;28;20044;-69
2023/07/22 06:51:30;;;;;;;5.95;1.98;;;14.20;66.40;;;;;;5089974;28;20044;-70
2023/07/22 06:53:57;;;;;;;3.05;1.60;;;14.20;66.60;;;;;;5091594;28;20036;-69
2023/07/22 06:56:26;;;;;;;4.18;1.75;;;14.20;66.80;;;;;;5091567;28;20040;-69
2023/07/22 06:58:53;;;;;;;2.80;1.60;;;14.10;67.10;;;;;;5090129;28;20418;-70
2023/07/22 07:01:20;;;;;;;5.65;1.80;;;14.10;67.30;;;;;;5091644;28;20501;-69
2023/07/22 07:03:47;;;;;;;4.90;1.90;;;14.10;67.70;;;;;;5091644;28;20380;-69
2023/07/22 07:06:15;;;;;;;4.32;1.85;;;14.10;68.10;;;;;;5073913;28;20044;-69
2023/07/22 07:08:42;;;;;;;4.38;1.80;;;14.00;68.20;;;;;;5089867;28;20036;-70
2023/07/22 07:11:10;;;;;;;49.88;5.03;;;14.00;68.80;;;;;;5083109;28;20036;-69
2023/07/22 07:13:37;;;;;;;8.25;1.95;;;14.00;69.10;;;;;;5100781;28;20040;-70
2023/07/22 07:16:28;;;;;;;4.47;1.80;;;14.00;69.30;;;;;;5111161;28;20433;-70
2023/07/22 07:18:56;;;;;;;11.32;1.95;;;14.00;69.40;;;;;;5081448;28;20486;-70
2023/07/22 07:21:23;;;;;;;7.78;2.05;;;13.90;69.40;;;;;;5090810;28;20155;-71
2023/07/22 07:23:51;;;;;;;5.30;2.08;;;13.90;69.70;;;;;;5091226;28;20398;-70
2023/07/22 07:26:19;;;;;;;6.30;2.20;;;13.90;69.80;;;;;;5090935;28;20040;-70
2023/07/22 07:28:47;;;;;;;4.88;2.00;;;13.90;70.10;;;;;;5081991;28;20123;-69
2023/07/22 07:31:14;;;;;;;4.65;2.10;;;13.90;70.20;;;;;;5098299;28;20031;-70
2023/07/22 07:33:42;;;;;;;4.00;2.17;;;13.90;70.40;;;;;;5088848;28;20537;-70
2023/07/22 07:36:09;;;;;;;6.70;2.88;;;13.80;70.50;;;;;;5089387;28;20418;-70
2023/07/22 07:38:36;;;;;;;4.47;2.45;;;13.80;70.50;;;;;;5090356;28;20084;-70
2023/07/22 07:41:08;;;;;;;6.90;2.42;;;13.80;70.60;;;;;;5089753;28;20067;-70
2023/07/22 07:43:36;;;;;;;9.43;2.90;;;13.80;70.60;;;;;;5090106;28;20036;-70
2023/07/22 07:46:22;;;;;;;8.32;2.70;;;13.80;70.70;;;;;;5089629;28;20043;-70
2023/07/22 07:48:51;;;;;;;8.13;2.50;;;13.70;70.80;;;;;;5089700;28;20028;-68
2023/07/22 07:51:19;;;;;;;7.75;2.47;;;13.80;70.80;;;;;;5088220;28;20115;-67
2023/07/22 07:53:47;;;;;;;5.18;2.28;;;13.80;70.80;;;;;;5085775;28;20045;-67
2023/07/22 07:56:15;;;;;;;9.88;2.60;;;13.70;70.90;;;;;;5098150;28;20032;-66
2023/07/22 07:58:42;;;;;;;6.45;2.65;;;13.70;71.00;;;;;;5055884;28;20680;-69
2023/07/22 08:01:10;;;;;;;5.30;2.67;;;13.70;71.10;;;;;;5092195;28;20044;-70
2023/07/22 08:03:39;;;;;;;5.95;3.03;;;13.70;71.10;;;;;;5089545;28;20498;-67
2023/07/22 08:06:07;;;;;;;5.97;2.78;;;13.70;71.30;;;;;;5089824;28;20074;-71
2023/07/22 08:08:34;;;;;;;8.07;2.80;;;13.70;71.40;;;;;;5089804;28;20032;-68
2023/07/22 08:11:13;;;;;;;9.07;3.10;;;13.60;71.50;;;;;;5089722;28;20042;-71
2023/07/22 08:13:41;;;;;;;6.70;2.45;;;13.60;71.60;;;;;;5090538;28;20028;-72
2023/07/22 08:16:09;;;;;;;8.23;3.20;;;13.60;71.70;;;;;;5089893;28;20052;-69
2023/07/22 08:18:37;;;;;;;9.82;2.63;;;13.50;71.70;;;;;;5071470;28;20486;-71
2023/07/22 08:21:06;;;;;;;9.13;3.15;;;13.50;71.80;;;;;;5090059;28;20040;-72
2023/07/22 08:23:33;;;;;;;11.65;2.90;;;13.50;72.00;;;;;;5090233;28;20703;-69
2023/07/22 08:26:00;;;;;;;10.30;3.70;;;13.50;72.10;;;;;;5090466;28;20036;-67
2023/07/22 08:28:28;;;;;;;8.95;3.70;;;13.50;72.20;;;;;;5089266;28;20083;-68
2023/07/22 08:30:58;;;;;;;10.73;3.60;;;13.50;72.20;;;;;;5089436;28;20410;-68
2023/07/22 08:33:25;;;;;;;10.65;3.28;;;13.50;72.20;;;;;;5071073;28;20070;-70
2023/07/22 08:35:56;;;;;;;14.20;3.50;;;13.50;72.20;;;;;;5094658;28;20059;-69
2023/07/22 08:38:23;;;;;;;11.85;3.22;;;13.60;72.20;;;;;;5092886;28;20039;-68
2023/07/22 08:40:51;;;;;;;7.82;3.15;;;13.50;72.30;;;;;;5086795;28;20412;-68
2023/07/22 08:43:21;;;;;;;7.40;2.88;;;13.50;72.30;;;;;;5087540;28;20440;-67
2023/07/22 08:45:49;;;;;;;12.90;3.72;;;13.50;72.30;;;;;;5088159;28;20059;-68
2023/07/22 08:48:21;;;;;;;10.52;4.47;;;13.50;72.40;;;;;;5086733;28;20551;-70
2023/07/22 08:51:05;;;;;;;7.65;4.07;;;13.40;72.40;;;;;;5063114;28;20118;-68
2023/07/22 08:53:36;;;;;;;10.48;3.50;;;13.40;72.70;;;;;;5069233;28;20036;-69
2023/07/22 08:56:04;;;;;;;10.43;4.00;;;13.40;72.90;;;;;;5068735;28;20055;-69
2023/07/22 08:58:31;;;;;;;12.40;4.18;;;13.30;73.10;;;;;;5089630;28;20405;-69
2023/07/22 09:00:59;;;;;;;10.65;3.92;;;13.30;73.30;;;;;;5090896;28;20413;-70
2023/07/22 09:03:26;;;;;;;8.77;4.30;;;13.30;73.40;;;;;;5074852;28;20362;-69
2023/07/22 09:05:54;;;;;;;11.20;4.43;;;13.20;73.50;;;;;;5086326;28;20554;-69
2023/07/22 09:08:21;;;;;;;19.08;5.18;;;13.20;73.80;;;;;;5073610;28;20039;-69
2023/07/22 09:10:48;;;;;;;13.27;5.22;;;13.10;73.90;;;;;;5109153;28;20112;-70
2023/07/22 09:13:16;;;;;;;17.50;6.75;;;13.10;74.10;;;;;;5106523;28;20043;-71
2023/07/22 09:15:43;;;;;;;12.80;5.15;;;13.10;74.40;;;;;;5080663;28;20409;-68
2023/07/22 09:18:11;;;;;;;12.27;5.60;;;13.10;74.50;;;;;;5110107;28;20038;-68
2023/07/22 09:20:38;;;;;;;10.80;5.03;;;13.10;74.40;;;;;;5110169;28;20035;-70
2023/07/22 09:23:06;;;;;;;11.68;5.10;;;13.00;74.50;;;;;;5110233;28;20032;-67
2023/07/22 09:25:33;;;;;;;13.82;5.07;;;13.10;74.60;;;;;;5091127;28;20047;-69
2023/07/22 09:28:00;;;;;;;12.32;5.40;;;13.00;74.50;;;;;;5091262;28;20104;-68
2023/07/22 09:30:41;;;;;;;12.52;5.20;;;13.00;74.50;;;;;;5109490;28;20020;-68
2023/07/22 09:33:21;;;;;;;16.73;6.20;;;13.00;74.80;;;;;;5086717;28;20406;-68
2023/07/22 09:35:49;;;;;;;20.20;7.00;;;13.00;74.80;;;;;;5101450;28;20043;-68
2023/07/22 09:38:24;;;;;;;14.68;6.88;;;12.90;74.60;;;;;;5109305;28;20040;-69
2023/07/22 09:40:51;;;;;;;12.35;6.85;;;12.90;74.70;;;;;;5107919;28;20059;-69
2023/07/22 09:43:18;;;;;;;11.60;6.65;;;12.90;74.60;;;;;;5108377;28;20070;-68
2023/07/22 09:45:48;;;;;;;9.93;6.07;;;12.90;74.60;;;;;;5108832;28;20043;-69
2023/07/22 09:48:15;;;;;;;12.68;6.57;;;12.80;74.80;;;;;;5054800;28;20410;-68
2023/07/22 09:50:43;;;;;;;10.38;6.70;;;12.80;75.00;;;;;;5089069;28;20052;-68
2023/07/22 09:53:10;;;;;;;13.38;6.78;;;12.70;75.10;;;;;;5088992;28;20063;-69
2023/07/22 09:55:38;;;;;;;9.68;5.60;;;12.70;75.20;;;;;;5059565;28;20158;-68
2023/07/22 09:58:05;;;;;;;8.32;5.30;;;12.70;75.30;;;;;;5107197;28;20105;-69
2023/07/22 10:00:34;;;;;;;10.73;5.43;;;12.70;75.40;;;;;;5102029;28;20088;-69
2023/07/22 10:03:04;;;;;;;11.82;5.80;;;12.70;75.50;;;;;;5107590;28;20328;-71
2023/07/22 10:05:33;;;;;;;12.02;6.05;;;12.60;75.70;;;;;;5105470;28;20139;-68
2023/07/22 10:08:00;;;;;;;14.63;6.63;;;12.50;75.90;;;;;;5100281;28;20028;-69
2023/07/22 10:10:36;;;;;;;10.52;6.07;;;12.50;76.00;;;;;;5085853;28;20129;-69
2023/07/22 10:13:04;;;;;;;8.43;5.03;;;12.50;75.80;;;;;;5099742;28;20035;-72
2023/07/22 10:15:35;;;;;;;11.30;5.65;;;12.50;76.00;;;;;;5101690;28;20512;-72
2023/07/22 10:18:05;;;;;;;12.10;5.30;;;12.40;76.00;;;;;;5088345;28;20152;-75
2023/07/22 10:20:36;;;;;;;13.65;5.25;;;12.40;76.10;;;;;;5108333;28;20062;-70
2023/07/22 10:23:03;;;;;;;7.13;4.90;;;12.40;76.20;;;;;;5106424;28;20035;-70
2023/07/22 10:25:31;;;;;;;11.25;5.45;;;12.40;76.30;;;;;;5074176;28;20696;-69
2023/07/22 10:27:58;;;;;;;9.55;5.25;;;12.30;76.70;;;;;;5091202;28;20114;-69
2023/07/22 10:30:25;;;;;;;14.45;8.48;;;12.30;76.70;;;;;;5078744;28;20491;-70
2023/07/22 10:32:53;;;;;;;12.60;7.40;;;12.30;76.70;;;;;;5106220;28;20032;-69
2023/07/22 10:35:30;;;;;;;12.43;6.07;;;12.30;76.70;;;;;;5110774;28;20112;-69
2023/07/22 10:38:18;;;;;;;11.38;6.07;;;12.40;76.70;;;;;;5109401;28;20036;-69
2023/07/22 10:40:55;;;;;;;14.15;6.57;;;12.40;76.60;;;;;;5109759;28;20084;-70
2023/07/22 10:43:31;;;;;;;12.70;6.57;;;12.40;76.50;;;;;;5102971;28;20432;-71
2023/07/22 10:46:09;;;;;;;14.88;5.68;;;12.40;76.80;;;;;;5090657;28;20058;-71
2023/07/22 10:48:39;;;;;;;12.68;6.32;;;12.30;77.20;;;;;;5109126;28;20043;-68
2023/07/22 10:51:11;;;;;;;14.45;5.97;;;12.20;77.20;;;;;;5106831;28;20582;-68
2023/07/22 10:53:46;;;;;;;16.52;6.68;;;12.20;77.50;;;;;;5109643;28;20048;-69
2023/07/22 10:56:20;;;;;;;15.43;7.53;;;12.20;77.70;;;;;;5108711;28;20040;-72
2023/07/22 10:58:47;;;;;;;12.85;7.28;;;12.10;78.20;;;;;;5108390;28;20055;-71
2023/07/22 11:01:37;;;;;;;16.08;7.90;;;12.00;78.30;;;;;;5102102;28;20101;-70
2023/07/22 11:04:18;;;;;;;13.93;7.40;;;12.00;78.60;;;;;;5098408;28;20031;-72
2023/07/22 11:06:47;;;;;;;11.45;7.47;;;12.00;78.80;;;;;;5109361;28;20052;-71
2023/07/22 12:27:36;;;;;;;11.95;6.85;;;11.40;80.20;;;;;;5094177;28;20124;-70
2023/07/22 12:30:04;;;;;;;12.95;6.50;;;11.40;80.10;;;;;;5087934;28;20594;-69
2023/07/22 12:32:31;;;;;;;12.73;6.90;;;11.40;80.10;;;;;;5082966;28;20043;-71
2023/07/22 12:34:58;;;;;;;14.65;7.22;;;11.40;79.80;;;;;;5088698;28;20051;-70
2023/07/22 12:37:26;;;;;;;13.18;6.43;;;11.30;80.00;;;;;;5086289;28;20052;-70
2023/07/22 12:39:53;;;;;;;14.65;6.70;;;11.40;79.80;;;;;;5085397;28;20051;-69
2023/07/22 12:42:20;;;;;;;9.80;6.22;;;11.30;79.80;;;;;;5087024;28;20042;-70
2023/07/22 12:44:47;;;;;;;11.20;6.60;;;11.30;79.80;;;;;;5092175;28;20450;-70
2023/07/22 12:47:15;;;;;;;12.02;6.70;;;11.30;79.90;;;;;;5091402;28;20039;-70
2023/07/22 12:49:42;;;;;;;13.63;6.25;;;11.30;79.90;;;;;;5091828;28;20036;-70
2023/07/22 12:52:09;;;;;;;14.60;7.07;;;11.20;79.90;;;;;;5091042;28;20100;-69
2023/07/22 12:54:39;;;;;;;10.05;6.60;;;11.20;80.00;;;;;;5091713;28;20485;-70
2023/07/22 12:57:07;;;;;;;14.05;6.43;;;11.20;79.90;;;;;;5089342;28;20044;-70
2023/07/22 12:59:34;;;;;;;14.38;7.70;;;11.20;79.80;;;;;;5092175;28;20067;-70
2023/07/22 13:02:01;;;;;;;13.90;6.85;;;11.20;79.70;;;;;;5075290;28;20052;-70
2023/07/22 13:04:28;;;;;;;15.15;6.80;;;11.20;79.80;;;;;;5083246;28;20115;-69
2023/07/22 13:06:55;;;;;;;15.30;6.53;;;11.20;79.90;;;;;;5087217;28;20648;-69
2023/07/22 13:09:23;;;;;;;9.82;5.97;;;11.20;79.70;;;;;;5090608;28;20088;-69
2023/07/22 13:11:50;;;;;;;11.70;6.88;;;11.10;79.90;;;;;;5086871;28;20036;-69
2023/07/22 13:14:18;;;;;;;16.13;7.28;;;11.10;79.90;;;;;;5091050;28;20401;-69
2023/07/22 13:16:45;;;;;;;11.95;6.72;;;11.10;79.80;;;;;;5077613;28;20143;-69
2023/07/22 13:19:12;;;;;;;11.15;6.90;;;11.10;79.90;;;;;;5089572;28;20119;-70
2023/07/22 13:21:40;;;;;;;11.30;6.90;;;11.10;79.90;;;;;;5077631;28;20117;-70
2023/07/22 13:24:08;;;;;;;13.50;6.90;;;11.00;80.00;;;;;;5071581;28;20490;-70
2023/07/22 13:26:38;;;;;;;16.42;7.35;;;11.00;80.00;;;;;;5085237;28;20040;-70
2023/07/22 13:29:05;;;;;;;14.32;7.13;;;11.00;80.20;;;;;;5091947;28;20032;-70
2023/07/22 13:31:32;;;;;;;13.05;7.53;;;11.00;80.30;;;;;;5090251;28;20042;-70
2023/07/22 13:34:00;;;;;;;13.02;7.15;;;11.00;80.30;;;;;;5091455;28;20046;-70
2023/07/22 13:36:27;;;;;;;13.77;6.82;;;10.90;80.30;;;;;;5091665;28;20052;-69
2023/07/22 13:38:54;;;;;;;13.77;6.43;;;10.90;80.70;;;;;;5092162;28;20154;-70
2023/07/22 13:41:21;;;;;;;14.85;7.10;;;10.90;80.80;;;;;;5080422;28;20032;-70
2023/07/22 13:43:49;;;;;;;15.35;7.70;;;10.80;80.80;;;;;;5071759;28;20035;-70
2023/07/22 13:46:16;;;;;;;11.40;6.22;;;10.80;81.10;;;;;;5071423;28;20041;-69
2023/07/22 13:48:43;;;;;;;15.95;5.90;;;10.70;81.10;;;;;;5088055;28;20032;-69
2023/07/22 13:51:10;;;;;;;14.50;7.00;;;10.70;81.30;;;;;;5081966;28;20044;-70
2023/07/22 13:53:37;;;;;;;13.00;6.50;;;10.70;81.00;;;;;;5071174;28;20037;-69
2023/07/22 13:56:05;;;;;;;15.82;6.95;;;10.60;81.40;;;;;;5074883;28;20124;-70
2023/07/22 13:58:32;;;;;;;15.90;7.38;;;10.60;81.70;;;;;;5079113;28;20070;-69
2023/07/22 14:00:59;;;;;;;13.48;6.78;;;10.50;81.70;;;;;;5085713;28;20033;-69
2023/07/22 14:03:26;;;;;;;18.20;7.10;;;10.50;81.70;;;;;;5075403;28;20025;-70
2023/07/22 14:05:54;;;;;;;15.50;6.63;;;10.50;81.70;;;;;;5093888;28;20028;-69
2023/07/22 14:08:21;;;;;;;13.40;6.78;;;10.50;81.80;;;;;;5094976;28;20084;-69
2023/07/22 14:10:48;;;;;;;12.50;6.70;;;10.50;81.90;;;;;;5093282;28;20439;-70
2023/07/22 14:13:15;;;;;;;13.75;7.00;;;10.40;81.80;;;;;;5094034;28;20681;-71
2023/07/22 14:15:43;;;;;;;13.50;6.88;;;10.50;82.00;;;;;;5093947;28;20044;-70
2023/07/22 14:18:10;;;;;;;14.35;6.97;;;10.50;81.80;;;;;;5093105;28;20020;-69
2023/07/22 14:20:37;;;;;;;12.13;6.50;;;10.40;81.70;;;;;;5092980;28;20036;-70
2023/07/22 14:23:04;;;;;;;14.68;6.93;;;10.40;81.50;;;;;;5092885;28;20079;-70
2023/07/22 14:25:32;;;;;;;15.07;6.78;;;10.40;81.70;;;;;;5094501;28;20086;-70
2023/07/22 14:27:59;;;;;;;10.48;6.10;;;10.40;81.50;;;;;;5094111;28;20519;-69
2023/07/22 14:30:26;;;;;;;14.05;6.45;;;10.30;81.70;;;;;;5094399;28;20040;-69
2023/07/22 14:32:53;;;;;;;12.23;6.38;;;10.30;81.80;;;;;;5095029;28;20028;-69
2023/07/22 14:35:21;;;;;;;16.13;6.80;;;10.30;81.80;;;;;;5094751;28;20036;-69
2023/07/22 14:37:48;;;;;;;13.05;6.55;;;10.20;81.60;;;;;;5085371;28;20044;-69
2023/07/22 14:40:16;;;;;;;15.43;6.45;;;10.20;81.70;;;;;;5094089;28;20997;-69
2023/07/22 14:42:43;;;;;;;12.23;5.97;;;10.20;81.50;;;;;;5093033;28;20068;-70
2023/07/22 14:45:10;;;;;;;11.07;6.13;;;10.20;81.60;;;;;;5094288;28;20032;-70
2023/07/22 14:47:37;;;;;;;11.75;6.47;;;10.20;81.60;;;;;;5085759;28;20040;-69
2023/07/22 14:50:06;;;;;;;10.65;6.07;;;10.20;81.50;;;;;;5074934;28;20036;-70
2023/07/22 14:52:33;;;;;;;11.15;6.03;;;10.20;81.40;;;;;;5094528;28;20048;-69
2023/07/22 14:55:00;;;;;;;11.75;5.72;;;10.20;81.50;;;;;;5091348;28;20032;-71
2023/07/22 14:57:29;;;;;;;10.57;6.70;;;10.10;81.50;;;;;;5080524;28;20628;-69
2023/07/22 14:59:56;;;;;;;14.57;5.60;;;10.10;81.30;;;;;;5074241;28;20475;-69
2023/07/22 15:02:24;;;;;;;10.73;5.85;;;10.10;81.20;;;;;;5094274;28;20040;-70
2023/07/22 15:04:51;;;;;;;14.52;4.97;;;10.10;81.10;;;;;;5094509;28;20051;-69
2023/07/22 15:07:18;;;;;;;11.45;5.80;;;10.10;81.40;;;;;;5093144;28;20028;-69
2023/07/22 15:09:45;;;;;;;9.13;5.90;;;10.10;81.20;;;;;;5092353;28;20074;-69
2023/07/22 15:12:13;;;;;;;11.68;5.28;;;10.00;81.20;;;;;;5088748;28;20119;-69
2023/07/22 15:14:40;;;;;;;15.10;5.70;;;10.00;81.10;;;;;;5074011;28;20399;-69
2023/07/22 15:17:08;;;;;;;10.80;5.57;;;10.00;81.30;;;;;;5077835;28;20458;-69
2023/07/22 15:19:35;;;;;;;13.38;5.70;;;10.00;81.30;;;;;;5093929;28;20107;-69
2023/07/22 15:22:03;;;;;;;8.98;5.38;;;10.00;81.30;;;;;;5093091;28;20166;-69
2023/07/22 15:24:30;;;;;;;12.18;6.55;;;9.90;81.50;;;;;;5092697;28;20189;-69
2023/07/22 15:26:57;;;;;;;8.90;5.97;;;9.90;81.30;;;;;;5092797;28;20040;-69
2023/07/22 15:29:24;;;;;;;8.40;5.72;;;10.00;81.20;;;;;;5087266;28;20040;-69
2023/07/22 15:31:51;;;;;;;11.57;6.10;;;9.90;81.20;;;;;;5087603;28;20509;-69
2023/07/22 15:34:19;;;;;;;12.27;6.07;;;9.90;81.20;;;;;;5074930;28;20039;-69
2023/07/22 15:36:46;;;;;;;11.48;6.25;;;9.90;81.10;;;;;;5092384;28;20055;-69
2023/07/22 15:39:13;;;;;;;8.70;5.88;;;9.80;81.30;;;;;;5080495;28;20122;-69
2023/07/22 15:41:40;;;;;;;11.52;6.15;;;9.80;81.20;;;;;;5092080;28;20572;-70
2023/07/22 15:44:07;;;;;;;13.55;6.80;;;9.80;81.20;;;;;;5085876;28;20059;-70
2023/07/22 15:46:35;;;;;;;11.73;6.30;;;9.80;81.20;;;;;;5058623;28;20036;-69
2023/07/22 15:49:02;;;;;;;13.73;6.50;;;9.80;81.20;;;;;;5081862;28;20032;-69
2023/07/22 15:51:30;;;;;;;10.40;6.25;;;9.70;81.10;;;;;;5091055;28;20028;-69
2023/07/22 15:53:57;;;;;;;10.15;6.13;;;9.80;81.20;;;;;;5080520;28;20036;-69
2023/07/22 15:56:24;;;;;;;12.60;7.28;;;9.80;81.20;;;;;;5090675;28;20123;-69
2023/07/22 15:58:51;;;;;;;12.93;7.22;;;9.80;81.00;;;;;;5086727;28;20042;-69
2023/07/22 16:01:19;;;;;;;12.27;6.13;;;9.80;81.00;;;;;;5091754;28;20127;-69
2023/07/22 16:03:46;;;;;;;10.10;6.07;;;9.80;80.90;;;;;;5092329;28;20035;-69
2023/07/22 16:06:13;;;;;;;9.40;6.40;;;9.80;80.60;;;;;;5078968;28;20043;-69
2023/07/22 16:08:40;;;;;;;11.68;6.70;;;9.80;81.00;;;;;;5084316;28;20124;-69
2023/07/22 16:11:08;;;;;;;10.30;6.95;;;9.80;80.60;;;;;;5093134;28;20040;-69
2023/07/22 16:13:35;;;;;;;11.77;6.93;;;9.80;80.90;;;;;;5093031;28;20028;-69
2023/07/22 16:16:02;;;;;;;12.60;6.68;;;9.70;81.00;;;;;;5092623;28;20040;-69
2023/07/22 16:18:29;;;;;;;11.30;6.93;;;9.70;81.00;;;;;;5091188;28;20036;-69
2023/07/22 16:20:57;;;;;;;12.40;7.28;;;9.70;80.50;;;;;;5091600;28;20105;-69
2023/07/22 16:23:24;;;;;;;12.70;7.38;;;9.70;80.50;;;;;;5093134;28;20024;-69
2023/07/22 16:25:51;;;;;;;11.55;7.25;;;9.70;80.40;;;;;;5092451;28;20448;-69
2023/07/22 16:28:19;;;;;;;11.25;7.13;;;9.70;80.50;;;;;;5109312;28;20119;-69
2023/07/22 16:30:46;;;;;;;12.23;6.80;;;9.70;80.80;;;;;;5113155;28;20553;-69
2023/07/22 16:33:13;;;;;;;12.98;7.80;;;9.70;80.80;;;;;;5113168;28;20028;-69
2023/07/22 16:35:40;;;;;;;13.98;6.82;;;9.70;80.80;;;;;;5112806;28;20478;-69
2023/07/22 16:38:07;;;;;;;11.50;7.50;;;9.70;80.70;;;;;;5103987;28;20046;-69
2023/07/22 16:40:35;;;;;;;11.60;7.15;;;9.70;80.90;;;;;;5092631;28;20028;-69
2023/07/22 16:43:02;;;;;;;18.05;7.72;;;9.70;81.20;;;;;;5093191;28;20036;-69
2023/07/22 16:45:29;;;;;;;12.45;7.35;;;9.60;81.40;;;;;;5092516;28;20054;-69
2023/07/22 16:47:57;;;;;;;11.73;7.03;;;9.50;81.80;;;;;;5099321;28;20168;-69
2023/07/22 16:50:24;;;;;;;13.63;7.13;;;9.50;81.90;;;;;;5112744;28;20036;-69
2023/07/22 16:52:51;;;;;;;12.63;7.43;;;9.50;81.90;;;;;;5096754;28;20104;-69
2023/07/22 16:55:18;;;;;;;11.95;7.57;;;9.40;81.90;;;;;;5089161;28;20490;-69
2023/07/22 16:57:46;;;;;;;13.85;7.13;;;9.40;82.00;;;;;;5091295;28;20032;-70
2023/07/22 17:00:15;;;;;;;11.23;7.05;;;9.30;82.20;;;;;;5094457;28;20032;-69
2023/07/22 17:02:46;;;;;;;12.68;7.13;;;9.30;82.00;;;;;;5092497;28;20046;-70
2023/07/22 17:05:13;;;;;;;9.55;6.50;;;9.30;82.30;;;;;;5092380;28;20486;-70
2023/07/22 17:07:45;;;;;;;10.55;6.75;;;9.20;82.10;;;;;;5094802;28;20046;-69
2023/07/22 17:10:13;;;;;;;12.65;7.20;;;9.20;82.00;;;;;;5111935;28;20073;-69
2023/07/22 17:12:40;;;;;;;13.05;7.25;;;9.20;81.70;;;;;;5111970;28;20038;-69
2023/07/22 17:15:09;;;;;;;12.77;6.88;;;9.20;81.90;;;;;;5112673;28;20027;-69
2023/07/22 17:17:36;;;;;;;11.18;6.65;;;9.20;81.70;;;;;;5111205;28;20043;-70
2023/07/22 17:20:05;;;;;;;10.82;6.55;;;9.30;81.80;;;;;;5111890;28;20429;-69
2023/07/22 17:22:32;;;;;;;16.10;7.60;;;9.20;81.80;;;;;;5111318;28;20465;-69
2023/07/22 17:24:59;;;;;;;13.23;7.57;;;9.20;81.60;;;;;;5112669;28;20629;-69
2023/07/22 17:27:26;;;;;;;14.38;8.52;;;9.20;81.70;;;;;;5104417;28;20127;-69
2023/07/22 17:29:53;;;;;;;15.63;8.27;;;9.20;81.60;;;;;;5112779;28;20027;-69
2023/07/22 17:32:21;;;;;;;16.60;8.50;;;9.20;81.90;;;;;;5116390;28;20035;-69
2023/07/22 17:34:48;;;;;;;16.25;7.80;;;9.20;81.80;;;;;;5116456;28;20027;-70
2023/07/22 17:37:16;;;;;;;15.85;7.28;;;9.20;81.70;;;;;;5112612;28;20510;-69
2023/07/22 17:39:43;;;;;;;13.20;7.13;;;9.20;81.70;;;;;;5095543;28;20036;-69
2023/07/22 17:42:10;;;;;;;12.15;7.18;;;9.20;81.70;;;;;;5095877;28;20036;-69
2023/07/22 17:44:37;;;;;;;10.38;6.82;;;9.20;81.90;;;;;;5095963;28;20028;-69
2023/07/22 17:47:05;;;;;;;10.77;6.85;;;9.20;81.90;;;;;;5112905;28;20118;-69
2023/07/22 17:49:32;;;;;;;11.90;6.95;;;9.20;81.70;;;;;;5094561;28;20390;-69
2023/07/22 17:51:59;;;;;;;9.93;6.10;;;9.10;81.70;;;;;;5095221;28;20028;-69
2023/07/22 17:54:26;;;;;;;9.77;6.15;;;9.10;81.60;;;;;;5095254;28;20024;-70
2023/07/22 17:56:54;;;;;;;11.63;6.72;;;9.10;81.80;;;;;;5104163;28;20142;-69
2023/07/22 17:59:21;;;;;;;9.90;6.40;;;9.10;82.00;;;;;;5098757;28;20028;-69
2023/07/22 18:01:48;;;;;;;11.90;5.90;;;9.00;82.00;;;;;;5089247;28;20028;-69
2023/07/22 18:04:15;;;;;;;8.70;5.47;;;9.00;82.00;;;;;;5077709;28;20034;-69
2023/07/22 18:06:42;;;;;;;11.00;6.20;;;9.10;82.00;;;;;;5094646;28;20461;-69
2023/07/22 18:09:10;;;;;;;12.73;6.22;;;9.00;82.00;;;;;;5093601;28;20040;-69
2023/07/22 18:11:37;;;;;;;11.18;6.43;;;9.00;82.00;;;;;;5104463;28;20046;-69
2023/07/22 18:14:04;;;;;;;14.15;6.80;;;9.00;82.00;;;;;;5110200;28;20393;-69
2023/07/22 18:16:31;;;;;;;11.20;6.13;;;9.00;82.00;;;;;;5102924;28;20053;-69
2023/07/22 18:18:59;;;;;;;10.25;6.30;;;9.00;81.90;;;;;;5100082;28;20036;-69
2023/07/22 18:21:26;;;;;;;12.35;6.50;;;9.00;82.00;;;;;;5092506;28;20047;-69
2023/07/22 18:23:53;;;;;;;10.48;5.97;;;9.00;82.00;;;;;;5095215;28;20514;-69
2023/07/22 18:26:20;;;;;;;9.00;5.90;;;9.00;81.90;;;;;;5097234;28;20413;-70
2023/07/22 18:28:47;;;;;;;7.85;5.82;;;9.00;81.80;;;;;;5092487;28;20119;-69
2023/07/22 18:31:15;;;;;;;8.77;5.85;;;9.00;82.10;;;;;;5092121;28;20032;-69
2023/07/22 18:33:42;;;;;;;11.13;5.93;;;9.00;82.10;;;;;;5093150;28;20483;-69
2023/07/22 18:36:09;;;;;;;11.55;5.88;;;9.00;82.10;;;;;;5089801;28;20060;-69
2023/07/22 18:38:37;;;;;;;7.95;5.53;;;8.90;82.20;;;;;;5080822;28;20033;-69
2023/07/22 18:41:04;;;;;;;11.05;5.78;;;9.00;82.00;;;;;;5092399;28;20752;-69
2023/07/22 18:43:31;;;;;;;12.48;6.03;;;9.00;82.10;;;;;;5093202;28;20033;-69
2023/07/22 18:45:58;;;;;;;10.20;5.60;;;9.00;82.00;;;;;;5092596;28;20024;-69
2023/07/22 18:48:25;;;;;;;9.05;5.25;;;8.90;81.90;;;;;;5092413;28;20036;-69
2023/07/22 18:50:59;;;;;;;9.15;5.70;;;8.90;81.70;;;;;;5087255;28;20036;-69
2023/07/22 18:53:26;;;;;;;11.85;5.45;;;8.90;81.90;;;;;;5092848;28;20039;-69
2023/07/22 18:55:53;;;;;;;8.70;5.40;;;8.90;81.80;;;;;;5093680;28;20101;-69
2023/07/22 18:58:20;;;;;;;8.75;5.50;;;8.90;81.90;;;;;;5093602;28;20067;-70
2023/07/22 19:00:48;;;;;;;9.00;5.18;;;8.90;81.60;;;;;;5089264;28;20375;-69
2023/07/22 19:03:15;;;;;;;9.85;5.22;;;9.00;81.60;;;;;;5073587;28;20024;-69
2023/07/22 19:05:42;;;;;;;8.85;5.25;;;9.00;81.50;;;;;;5094523;28;20028;-69
2023/07/22 19:08:09;;;;;;;9.35;5.28;;;8.90;81.50;;;;;;5077120;28;20078;-69
2023/07/22 19:10:43;;;;;;;9.45;5.30;;;9.00;81.80;;;;;;5088823;28;20035;-69
2023/07/22 19:13:10;;;;;;;12.15;5.40;;;8.90;82.10;;;;;;5094014;28;20028;-69
2023/07/22 19:15:37;;;;;;;9.63;5.30;;;8.90;81.80;;;;;;5092187;28;20117;-69
2023/07/22 19:18:05;;;;;;;10.50;5.65;;;8.80;81.90;;;;;;5093455;28;20056;-69
2023/07/22 19:20:32;;;;;;;11.38;5.63;;;8.80;82.00;;;;;;5086755;28;20087;-69
2023/07/22 19:23:00;;;;;;;10.02;5.28;;;8.80;82.00;;;;;;5093826;28;20071;-69
2023/07/22 19:25:27;;;;;;;9.80;5.60;;;8.80;81.90;;;;;;5093173;28;20028;-69
2023/07/22 19:27:56;;;;;;;10.02;5.95;;;8.80;82.00;;;;;;5093722;28;20526;-69
2023/07/22 19:30:23;;;;;;;10.07;5.47;;;8.90;82.00;;;;;;5092390;28;20124;-69
2023/07/22 19:32:51;;;;;;;8.50;5.38;;;8.80;82.00;;;;;;5093504;28;20445;-69
2023/07/22 19:35:19;;;;;;;7.80;4.90;;;8.80;82.00;;;;;;5092708;28;20371;-69
2023/07/22 19:37:49;;;;;;;9.77;5.50;;;8.80;82.20;;;;;;5093228;28;20078;-69